TimeHST,TemperatureF,Dew PointF,Humidity,Sea Level PressureIn,VisibilityMPH,Wind Direction,Wind SpeedMPH,Gust SpeedMPH,PrecipitationIn,Events,Conditions,WindDirDegrees,DateUTC
12:53 AM,73.0,61.0,66,30.02,10.0,NNE,3.5,-,N/A,,Clear,30,2012-02-23 10:53:00
1:53 AM,73.0,62.1,68,30.00,10.0,Calm,Calm,-,N/A,,Clear,0,2012-02-23 11:53:00
2:53 AM,69.1,61.0,75,29.97,10.0,Calm,Calm,-,N/A,,Clear,0,2012-02-23 12:53:00
3:53 AM,69.1,59.0,70,29.96,10.0,NE,6.9,-,N/A,,Clear,40,2012-02-23 13:53:00
4:53 AM,70.0,60.1,71,29.95,10.0,NE,8.1,-,N/A,,Clear,40,2012-02-23 14:53:00
5:53 AM,71.1,57.9,63,29.95,10.0,East,4.6,-,N/A,,Clear,100,2012-02-23 15:53:00
6:53 AM,69.1,59.0,70,29.96,10.0,ESE,5.8,-,N/A,,Clear,120,2012-02-23 16:53:00
7:53 AM,73.0,59.0,61,29.98,10.0,ESE,5.8,-,N/A,,Clear,120,2012-02-23 17:53:00
8:53 AM,75.9,62.1,62,30.00,10.0,SSE,10.4,-,N/A,,Clear,160,2012-02-23 18:53:00
9:53 AM,77.0,64.0,64,30.00,10.0,South,10.4,-,N/A,,Clear,180,2012-02-23 19:53:00
10:53 AM,78.1,66.0,66,29.99,10.0,SSW,11.5,-,N/A,,Clear,200,2012-02-23 20:53:00
11:53 AM,78.1,66.0,66,29.97,10.0,SSW,8.1,-,N/A,,Mostly Cloudy,200,2012-02-23 21:53:00
12:53 PM,77.0,64.9,66,29.95,10.0,WSW,9.2,-,N/A,,Overcast,250,2012-02-23 22:53:00
1:53 PM,78.1,64.9,64,29.92,10.0,West,10.4,-,N/A,,Scattered Clouds,270,2012-02-23 23:53:00
2:53 PM,78.1,64.9,64,29.90,10.0,West,9.2,-,N/A,,Overcast,270,2012-02-24 00:53:00
3:53 PM,79.0,66.0,64,29.89,10.0,WNW,9.2,-,N/A,,Partly Cloudy,290,2012-02-24 01:53:00
4:53 PM,77.0,66.0,69,29.90,10.0,West,10.4,-,N/A,,Overcast,260,2012-02-24 02:53:00
5:53 PM,75.9,64.9,69,29.91,10.0,West,3.5,-,N/A,,Overcast,270,2012-02-24 03:53:00
6:53 PM,77.0,64.9,66,29.93,10.0,SE,6.9,-,N/A,,Overcast,130,2012-02-24 04:53:00
7:53 PM,75.9,64.0,67,29.95,10.0,ESE,11.5,-,N/A,,Overcast,120,2012-02-24 05:53:00
8:53 PM,75.0,63.0,66,29.96,10.0,ESE,4.6,-,N/A,,Partly Cloudy,120,2012-02-24 06:53:00
9:53 PM,73.9,61.0,64,29.98,10.0,SE,9.2,-,N/A,,Clear,130,2012-02-24 07:53:00
10:53 PM,73.0,62.1,68,29.98,10.0,SE,9.2,-,N/A,,Clear,130,2012-02-24 08:53:00
11:53 PM,73.0,62.1,68,29.98,10.0,SE,10.4,-,N/A,,Mostly Cloudy,130,2012-02-24 09:53:00